sensor_id;sensor_type;location;lat;lon;timestamp;P1;durP1;ratioP1;P2;durP2;ratioP2
71606;SDS011;60641;53.556;9.914;2022-09-21T00:01:29;8.30;;;2.10;;
71606;SDS011;60641;53.556;9.914;2022-09-21T00:03:56;6.00;;;1.80;;
71606;SDS011;60641;53.556;9.914;2022-09-21T00:06:25;8.40;;;2.10;;
71606;SDS011;60641;53.556;9.914;2022-09-21T00:08:53;12.00;;;1.70;;
71606;SDS011;60641;53.556;9.914;2022-09-21T00:11:21;9.00;;;2.00;;
71606;SDS011;60641;53.556;9.914;2022-09-21T00:13:53;6.40;;;1.80;;
71606;SDS011;60641;53.556;9.914;2022-09-21T00:16:21;7.70;;;1.80;;
71606;SDS011;60641;53.556;9.914;2022-09-21T00:18:47;10.70;;;2.60;;
71606;SDS011;60641;53.556;9.914;2022-09-21T00:21:15;10.00;;;1.90;;
71606;SDS011;60641;53.556;9.914;2022-09-21T00:23:42;8.50;;;2.30;;
71606;SDS011;60641;53.556;9.914;2022-09-21T00:26:10;7.50;;;1.80;;
71606;SDS011;60641;53.556;9.914;2022-09-21T00:28:41;8.70;;;2.00;;
71606;SDS011;60641;53.556;9.914;2022-09-21T00:31:10;6.10;;;1.80;;
71606;SDS011;60641;53.556;9.914;2022-09-21T00:33:38;8.10;;;2.30;;
71606;SDS011;60641;53.556;9.914;2022-09-21T00:36:07;9.40;;;1.90;;
71606;SDS011;60641;53.556;9.914;2022-09-21T00:38:35;7.60;;;1.80;;
71606;SDS011;60641;53.556;9.914;2022-09-21T00:41:03;7.30;;;1.90;;
71606;SDS011;60641;53.556;9.914;2022-09-21T00:43:35;8.20;;;1.90;;
71606;SDS011;60641;53.556;9.914;2022-09-21T00:46:04;10.00;;;1.90;;
71606;SDS011;60641;53.556;9.914;2022-09-21T00:48:32;8.30;;;1.90;;
71606;SDS011;60641;53.556;9.914;2022-09-21T00:51:00;7.80;;;1.80;;
71606;SDS011;60641;53.556;9.914;2022-09-21T00:53:29;5.30;;;1.70;;
71606;SDS011;60641;53.556;9.914;2022-09-21T00:55:57;8.90;;;1.90;;
71606;SDS011;60641;53.556;9.914;2022-09-21T00:58:25;9.10;;;2.10;;
71606;SDS011;60641;53.556;9.914;2022-09-21T01:00:55;10.30;;;1.80;;
71606;SDS011;60641;53.556;9.914;2022-09-21T01:03:23;8.20;;;2.10;;
71606;SDS011;60641;53.556;9.914;2022-09-21T01:05:50;7.70;;;1.80;;
71606;SDS011;60641;53.556;9.914;2022-09-21T01:08:17;8.20;;;1.70;;
71606;SDS011;60641;53.556;9.914;2022-09-21T01:13:41;7.80;;;1.60;;
71606;SDS011;60641;53.556;9.914;2022-09-21T01:27:48;7.20;;;1.90;;
71606;SDS011;60641;53.556;9.914;2022-09-21T01:30:15;11.10;;;2.40;;
71606;SDS011;60641;53.556;9.914;2022-09-21T01:35:46;7.30;;;1.70;;
71606;SDS011;60641;53.556;9.914;2022-09-21T01:38:24;9.00;;;1.80;;
71606;SDS011;60641;53.556;9.914;2022-09-21T01:40:54;6.70;;;1.80;;
71606;SDS011;60641;53.556;9.914;2022-09-21T01:43:33;8.70;;;1.80;;
71606;SDS011;60641;53.556;9.914;2022-09-21T01:46:01;9.40;;;2.40;;
71606;SDS011;60641;53.556;9.914;2022-09-21T01:48:31;8.80;;;1.80;;
71606;SDS011;60641;53.556;9.914;2022-09-21T01:51:00;8.20;;;2.00;;
71606;SDS011;60641;53.556;9.914;2022-09-21T01:53:32;6.40;;;1.90;;
71606;SDS011;60641;53.556;9.914;2022-09-21T01:58:43;9.40;;;2.00;;
71606;SDS011;60641;53.556;9.914;2022-09-21T02:01:13;7.20;;;1.80;;
71606;SDS011;60641;53.556;9.914;2022-09-21T02:04:04;8.60;;;1.60;;
71606;SDS011;60641;53.556;9.914;2022-09-21T02:06:35;6.80;;;1.90;;
71606;SDS011;60641;53.556;9.914;2022-09-21T02:09:04;8.20;;;1.90;;
71606;SDS011;60641;53.556;9.914;2022-09-21T02:11:30;5.50;;;1.70;;
71606;SDS011;60641;53.556;9.914;2022-09-21T02:13:57;9.90;;;2.10;;
71606;SDS011;60641;53.556;9.914;2022-09-21T02:16:33;9.80;;;1.70;;
71606;SDS011;60641;53.556;9.914;2022-09-21T02:26:54;8.70;;;1.70;;
71606;SDS011;60641;53.556;9.914;2022-09-21T02:32:22;9.60;;;2.00;;
71606;SDS011;60641;53.556;9.914;2022-09-21T02:35:14;6.70;;;1.90;;
71606;SDS011;60641;53.556;9.914;2022-09-21T02:40:47;6.80;;;1.70;;
71606;SDS011;60641;53.556;9.914;2022-09-21T02:43:22;8.50;;;1.70;;
71606;SDS011;60641;53.556;9.914;2022-09-21T02:46:58;6.60;;;1.80;;
71606;SDS011;60641;53.556;9.914;2022-09-21T02:49:06;7.50;;;1.80;;
71606;SDS011;60641;53.556;9.914;2022-09-21T02:51:35;8.70;;;1.80;;
71606;SDS011;60641;53.556;9.914;2022-09-21T02:54:05;8.10;;;1.80;;
71606;SDS011;60641;53.556;9.914;2022-09-21T02:56:31;5.70;;;1.80;;
71606;SDS011;60641;53.556;9.914;2022-09-21T02:59:00;7.60;;;1.60;;
71606;SDS011;60641;53.556;9.914;2022-09-21T03:01:29;7.00;;;1.90;;
71606;SDS011;60641;53.556;9.914;2022-09-21T03:03:56;8.20;;;2.00;;
71606;SDS011;60641;53.556;9.914;2022-09-21T03:06:25;6.00;;;1.70;;
71606;SDS011;60641;53.556;9.914;2022-09-21T03:08:52;7.90;;;1.60;;
71606;SDS011;60641;53.556;9.914;2022-09-21T03:11:19;7.60;;;1.80;;
71606;SDS011;60641;53.556;9.914;2022-09-21T03:13:45;7.70;;;2.50;;
71606;SDS011;60641;53.556;9.914;2022-09-21T03:16:12;6.80;;;1.50;;
71606;SDS011;60641;53.556;9.914;2022-09-21T03:18:39;6.20;;;1.70;;
71606;SDS011;60641;53.556;9.914;2022-09-21T03:21:07;8.10;;;1.90;;
71606;SDS011;60641;53.556;9.914;2022-09-21T03:23:33;8.10;;;1.90;;
71606;SDS011;60641;53.556;9.914;2022-09-21T03:26:00;7.50;;;1.70;;
71606;SDS011;60641;53.556;9.914;2022-09-21T03:28:27;8.30;;;1.90;;
71606;SDS011;60641;53.556;9.914;2022-09-21T03:30:53;8.00;;;2.30;;
71606;SDS011;60641;53.556;9.914;2022-09-21T03:33:20;6.50;;;1.70;;
71606;SDS011;60641;53.556;9.914;2022-09-21T03:35:47;6.00;;;1.80;;
71606;SDS011;60641;53.556;9.914;2022-09-21T03:38:13;10.80;;;2.20;;
71606;SDS011;60641;53.556;9.914;2022-09-21T03:40:45;10.80;;;2.50;;
71606;SDS011;60641;53.556;9.914;2022-09-21T03:43:12;10.80;;;2.80;;
71606;SDS011;60641;53.556;9.914;2022-09-21T03:45:38;13.40;;;3.10;;
71606;SDS011;60641;53.556;9.914;2022-09-21T03:48:07;13.90;;;3.30;;
71606;SDS011;60641;53.556;9.914;2022-09-21T03:50:35;13.80;;;3.40;;
71606;SDS011;60641;53.556;9.914;2022-09-21T03:53:02;10.90;;;3.00;;
71606;SDS011;60641;53.556;9.914;2022-09-21T03:55:28;10.60;;;3.10;;
71606;SDS011;60641;53.556;9.914;2022-09-21T03:57:56;11.70;;;3.10;;
71606;SDS011;60641;53.556;9.914;2022-09-21T04:00:22;9.90;;;2.80;;
71606;SDS011;60641;53.556;9.914;2022-09-21T04:02:48;9.60;;;2.80;;
71606;SDS011;60641;53.556;9.914;2022-09-21T04:05:15;8.50;;;2.60;;
71606;SDS011;60641;53.556;9.914;2022-09-21T04:07:42;8.60;;;2.40;;
71606;SDS011;60641;53.556;9.914;2022-09-21T04:10:11;9.00;;;3.00;;
71606;SDS011;60641;53.556;9.914;2022-09-21T04:12:43;9.60;;;2.70;;
71606;SDS011;60641;53.556;9.914;2022-09-21T04:15:10;6.40;;;2.40;;
71606;SDS011;60641;53.556;9.914;2022-09-21T04:17:38;6.60;;;2.30;;
71606;SDS011;60641;53.556;9.914;2022-09-21T04:20:05;7.70;;;2.80;;
71606;SDS011;60641;53.556;9.914;2022-09-21T04:22:32;8.60;;;2.50;;
71606;SDS011;60641;53.556;9.914;2022-09-21T04:24:58;7.50;;;2.80;;
71606;SDS011;60641;53.556;9.914;2022-09-21T04:27:26;8.30;;;2.80;;
71606;SDS011;60641;53.556;9.914;2022-09-21T04:29:52;8.60;;;2.80;;
71606;SDS011;60641;53.556;9.914;2022-09-21T04:32:19;8.30;;;2.70;;
71606;SDS011;60641;53.556;9.914;2022-09-21T04:34:45;6.80;;;2.80;;
71606;SDS011;60641;53.556;9.914;2022-09-21T04:37:12;7.90;;;2.60;;
71606;SDS011;60641;53.556;9.914;2022-09-21T04:39:39;6.00;;;2.30;;
71606;SDS011;60641;53.556;9.914;2022-09-21T04:42:05;9.60;;;2.90;;
71606;SDS011;60641;53.556;9.914;2022-09-21T04:44:32;7.60;;;2.90;;
71606;SDS011;60641;53.556;9.914;2022-09-21T04:46:58;6.70;;;2.70;;
71606;SDS011;60641;53.556;9.914;2022-09-21T04:49:25;7.00;;;2.80;;
71606;SDS011;60641;53.556;9.914;2022-09-21T04:51:51;7.90;;;3.20;;
71606;SDS011;60641;53.556;9.914;2022-09-21T04:54:18;6.90;;;2.80;;
71606;SDS011;60641;53.556;9.914;2022-09-21T04:56:44;8.80;;;3.30;;
71606;SDS011;60641;53.556;9.914;2022-09-21T04:59:11;7.70;;;3.60;;
71606;SDS011;60641;53.556;9.914;2022-09-21T05:01:37;9.40;;;3.80;;
71606;SDS011;60641;53.556;9.914;2022-09-21T05:04:04;11.70;;;3.90;;
71606;SDS011;60641;53.556;9.914;2022-09-21T05:06:31;8.10;;;3.90;;
71606;SDS011;60641;53.556;9.914;2022-09-21T05:08:58;8.70;;;4.20;;
71606;SDS011;60641;53.556;9.914;2022-09-21T05:11:44;9.20;;;3.90;;
71606;SDS011;60641;53.556;9.914;2022-09-21T05:14:10;9.90;;;4.70;;
71606;SDS011;60641;53.556;9.914;2022-09-21T05:16:37;9.60;;;4.50;;
71606;SDS011;60641;53.556;9.914;2022-09-21T05:19:03;10.40;;;4.50;;
71606;SDS011;60641;53.556;9.914;2022-09-21T05:21:30;10.10;;;5.10;;
71606;SDS011;60641;53.556;9.914;2022-09-21T05:23:57;9.60;;;4.80;;
71606;SDS011;60641;53.556;9.914;2022-09-21T05:26:23;11.60;;;4.90;;
71606;SDS011;60641;53.556;9.914;2022-09-21T05:28:50;10.10;;;5.10;;
71606;SDS011;60641;53.556;9.914;2022-09-21T05:34:20;9.30;;;5.10;;
71606;SDS011;60641;53.556;9.914;2022-09-21T05:36:51;10.00;;;5.30;;
71606;SDS011;60641;53.556;9.914;2022-09-21T05:39:19;9.30;;;5.10;;
71606;SDS011;60641;53.556;9.914;2022-09-21T05:41:46;11.40;;;5.80;;
71606;SDS011;60641;53.556;9.914;2022-09-21T05:44:13;8.50;;;4.60;;
71606;SDS011;60641;53.556;9.914;2022-09-21T05:49:19;9.30;;;5.30;;
71606;SDS011;60641;53.556;9.914;2022-09-21T05:54:55;10.90;;;5.10;;
71606;SDS011;60641;53.556;9.914;2022-09-21T05:57:37;9.00;;;5.10;;
71606;SDS011;60641;53.556;9.914;2022-09-21T06:05:54;12.00;;;6.10;;
71606;SDS011;60641;53.556;9.914;2022-09-21T06:08:24;10.90;;;5.60;;
71606;SDS011;60641;53.556;9.914;2022-09-21T06:10:51;12.20;;;5.90;;
71606;SDS011;60641;53.556;9.914;2022-09-21T06:13:18;11.00;;;5.70;;
71606;SDS011;60641;53.556;9.914;2022-09-21T06:15:45;11.10;;;5.40;;
71606;SDS011;60641;53.556;9.914;2022-09-21T06:18:11;10.60;;;5.30;;
71606;SDS011;60641;53.556;9.914;2022-09-21T06:20:38;11.30;;;5.20;;
71606;SDS011;60641;53.556;9.914;2022-09-21T06:23:06;13.30;;;5.50;;
71606;SDS011;60641;53.556;9.914;2022-09-21T06:25:33;11.40;;;5.30;;
71606;SDS011;60641;53.556;9.914;2022-09-21T06:28:01;11.00;;;5.60;;
71606;SDS011;60641;53.556;9.914;2022-09-21T06:30:31;10.30;;;5.70;;
71606;SDS011;60641;53.556;9.914;2022-09-21T06:32:59;10.60;;;5.80;;
71606;SDS011;60641;53.556;9.914;2022-09-21T06:35:27;12.10;;;5.70;;
71606;SDS011;60641;53.556;9.914;2022-09-21T06:37:58;22.30;;;5.30;;
71606;SDS011;60641;53.556;9.914;2022-09-21T06:40:28;13.40;;;5.50;;
71606;SDS011;60641;53.556;9.914;2022-09-21T06:42:56;11.70;;;5.20;;
71606;SDS011;60641;53.556;9.914;2022-09-21T06:45:27;11.60;;;5.90;;
71606;SDS011;60641;53.556;9.914;2022-09-21T06:47:54;11.00;;;5.30;;
71606;SDS011;60641;53.556;9.914;2022-09-21T06:50:21;10.70;;;5.40;;
71606;SDS011;60641;53.556;9.914;2022-09-21T06:52:49;11.50;;;5.50;;
71606;SDS011;60641;53.556;9.914;2022-09-21T06:55:16;11.40;;;5.00;;
71606;SDS011;60641;53.556;9.914;2022-09-21T06:57:43;13.30;;;5.30;;
71606;SDS011;60641;53.556;9.914;2022-09-21T07:00:10;13.30;;;5.20;;
71606;SDS011;60641;53.556;9.914;2022-09-21T07:02:41;12.20;;;4.90;;
71606;SDS011;60641;53.556;9.914;2022-09-21T07:05:08;13.80;;;4.90;;
71606;SDS011;60641;53.556;9.914;2022-09-21T07:07:34;9.50;;;4.60;;
71606;SDS011;60641;53.556;9.914;2022-09-21T07:10:01;13.90;;;5.10;;
71606;SDS011;60641;53.556;9.914;2022-09-21T07:12:28;12.50;;;4.80;;
71606;SDS011;60641;53.556;9.914;2022-09-21T07:14:55;11.70;;;4.60;;
71606;SDS011;60641;53.556;9.914;2022-09-21T07:17:21;14.00;;;5.30;;
71606;SDS011;60641;53.556;9.914;2022-09-21T07:19:48;11.70;;;5.00;;
71606;SDS011;60641;53.556;9.914;2022-09-21T07:22:15;18.90;;;5.10;;
71606;SDS011;60641;53.556;9.914;2022-09-21T07:24:41;10.60;;;4.70;;
71606;SDS011;60641;53.556;9.914;2022-09-21T07:27:08;10.80;;;4.30;;
71606;SDS011;60641;53.556;9.914;2022-09-21T07:29:34;13.00;;;4.60;;
71606;SDS011;60641;53.556;9.914;2022-09-21T07:32:00;11.90;;;3.90;;
71606;SDS011;60641;53.556;9.914;2022-09-21T07:34:27;10.10;;;3.70;;
71606;SDS011;60641;53.556;9.914;2022-09-21T07:36:54;9.80;;;3.40;;
71606;SDS011;60641;53.556;9.914;2022-09-21T07:39:20;10.90;;;3.90;;
71606;SDS011;60641;53.556;9.914;2022-09-21T07:41:46;11.50;;;4.20;;
71606;SDS011;60641;53.556;9.914;2022-09-21T07:44:13;11.30;;;3.80;;
71606;SDS011;60641;53.556;9.914;2022-09-21T07:46:39;10.90;;;4.10;;
71606;SDS011;60641;53.556;9.914;2022-09-21T07:49:05;10.60;;;4.00;;
71606;SDS011;60641;53.556;9.914;2022-09-21T07:51:32;9.20;;;3.70;;
71606;SDS011;60641;53.556;9.914;2022-09-21T07:53:58;10.90;;;3.40;;
71606;SDS011;60641;53.556;9.914;2022-09-21T07:56:24;9.60;;;3.40;;
71606;SDS011;60641;53.556;9.914;2022-09-21T07:58:51;11.50;;;3.30;;
71606;SDS011;60641;53.556;9.914;2022-09-21T08:03:59;10.90;;;3.60;;
71606;SDS011;60641;53.556;9.914;2022-09-21T08:06:28;11.70;;;3.80;;
71606;SDS011;60641;53.556;9.914;2022-09-21T08:09:00;16.20;;;3.80;;
71606;SDS011;60641;53.556;9.914;2022-09-21T08:11:28;10.40;;;3.60;;
71606;SDS011;60641;53.556;9.914;2022-09-21T08:13:56;11.60;;;3.90;;
71606;SDS011;60641;53.556;9.914;2022-09-21T08:16:25;9.90;;;4.00;;
71606;SDS011;60641;53.556;9.914;2022-09-21T08:18:52;13.50;;;4.00;;
71606;SDS011;60641;53.556;9.914;2022-09-21T08:21:19;12.00;;;3.60;;
71606;SDS011;60641;53.556;9.914;2022-09-21T08:23:46;9.90;;;3.70;;
71606;SDS011;60641;53.556;9.914;2022-09-21T08:26:14;10.70;;;4.00;;
71606;SDS011;60641;53.556;9.914;2022-09-21T08:28:46;12.10;;;4.00;;
71606;SDS011;60641;53.556;9.914;2022-09-21T08:31:15;10.50;;;3.50;;
71606;SDS011;60641;53.556;9.914;2022-09-21T08:33:43;13.30;;;3.60;;
71606;SDS011;60641;53.556;9.914;2022-09-21T08:36:10;10.40;;;3.20;;
71606;SDS011;60641;53.556;9.914;2022-09-21T08:38:37;8.80;;;3.30;;
71606;SDS011;60641;53.556;9.914;2022-09-21T08:43:42;8.70;;;2.60;;
71606;SDS011;60641;53.556;9.914;2022-09-21T08:46:17;8.20;;;2.50;;
71606;SDS011;60641;53.556;9.914;2022-09-21T08:48:55;7.30;;;2.60;;
71606;SDS011;60641;53.556;9.914;2022-09-21T08:51:26;11.10;;;2.90;;
71606;SDS011;60641;53.556;9.914;2022-09-21T08:53:56;10.00;;;2.90;;
71606;SDS011;60641;53.556;9.914;2022-09-21T08:56:27;9.70;;;2.50;;
71606;SDS011;60641;53.556;9.914;2022-09-21T08:58:53;6.80;;;2.20;;
71606;SDS011;60641;53.556;9.914;2022-09-21T09:07:00;5.60;;;1.70;;
71606;SDS011;60641;53.556;9.914;2022-09-21T09:18:06;6.40;;;1.50;;
71606;SDS011;60641;53.556;9.914;2022-09-21T09:20:42;7.40;;;1.50;;
71606;SDS011;60641;53.556;9.914;2022-09-21T09:23:21;4.30;;;1.00;;
71606;SDS011;60641;53.556;9.914;2022-09-21T09:25:52;5.90;;;0.90;;
71606;SDS011;60641;53.556;9.914;2022-09-21T09:28:32;5.70;;;1.00;;
71606;SDS011;60641;53.556;9.914;2022-09-21T09:31:16;6.40;;;1.10;;
71606;SDS011;60641;53.556;9.914;2022-09-21T09:33:55;5.10;;;1.60;;
71606;SDS011;60641;53.556;9.914;2022-09-21T09:36:24;7.40;;;1.70;;
71606;SDS011;60641;53.556;9.914;2022-09-21T09:38:56;5.40;;;1.40;;
71606;SDS011;60641;53.556;9.914;2022-09-21T09:47:17;7.60;;;2.00;;
71606;SDS011;60641;53.556;9.914;2022-09-21T09:50:12;6.80;;;2.10;;
71606;SDS011;60641;53.556;9.914;2022-09-21T09:52:47;6.20;;;1.40;;
71606;SDS011;60641;53.556;9.914;2022-09-21T09:55:16;8.10;;;2.00;;
71606;SDS011;60641;53.556;9.914;2022-09-21T09:57:45;8.20;;;1.90;;
71606;SDS011;60641;53.556;9.914;2022-09-21T10:00:13;7.60;;;1.60;;
71606;SDS011;60641;53.556;9.914;2022-09-21T10:02:51;7.40;;;1.60;;
71606;SDS011;60641;53.556;9.914;2022-09-21T10:08:26;7.80;;;1.60;;
71606;SDS011;60641;53.556;9.914;2022-09-21T10:11:02;7.60;;;1.60;;
71606;SDS011;60641;53.556;9.914;2022-09-21T10:13:29;4.50;;;1.30;;
71606;SDS011;60641;53.556;9.914;2022-09-21T10:21:15;4.30;;;1.00;;
71606;SDS011;60641;53.556;9.914;2022-09-21T10:23:45;5.70;;;1.20;;
71606;SDS011;60641;53.556;9.914;2022-09-21T10:26:17;6.60;;;1.00;;
71606;SDS011;60641;53.556;9.914;2022-09-21T10:28:58;3.60;;;1.10;;
71606;SDS011;60641;53.556;9.914;2022-09-21T10:31:26;5.30;;;1.10;;
71606;SDS011;60641;53.556;9.914;2022-09-21T10:34:12;4.80;;;1.00;;
71606;SDS011;60641;53.556;9.914;2022-09-21T10:36:39;5.50;;;1.00;;
71606;SDS011;60641;53.556;9.914;2022-09-21T10:44:24;5.80;;;1.30;;
71606;SDS011;60641;53.556;9.914;2022-09-21T10:46:53;7.90;;;1.20;;
71606;SDS011;60641;53.556;9.914;2022-09-21T10:49:24;5.00;;;1.30;;
71606;SDS011;60641;53.556;9.914;2022-09-21T10:51:55;5.70;;;1.50;;
71606;SDS011;60641;53.556;9.914;2022-09-21T10:54:25;7.20;;;1.30;;
71606;SDS011;60641;53.556;9.914;2022-09-21T10:56:55;8.00;;;1.40;;
71606;SDS011;60641;53.556;9.914;2022-09-21T10:59:25;5.50;;;1.20;;
71606;SDS011;60641;53.556;9.914;2022-09-21T11:01:52;5.20;;;1.30;;
71606;SDS011;60641;53.556;9.914;2022-09-21T11:07:16;4.70;;;1.30;;
71606;SDS011;60641;53.556;9.914;2022-09-21T11:09:50;6.10;;;1.50;;
71606;SDS011;60641;53.556;9.914;2022-09-21T11:17:34;5.50;;;1.00;;
71606;SDS011;60641;53.556;9.914;2022-09-21T11:25:41;6.80;;;1.30;;
71606;SDS011;60641;53.556;9.914;2022-09-21T11:28:13;3.80;;;1.00;;
71606;SDS011;60641;53.556;9.914;2022-09-21T11:36:23;6.40;;;1.30;;
71606;SDS011;60641;53.556;9.914;2022-09-21T11:39:19;4.40;;;1.30;;
71606;SDS011;60641;53.556;9.914;2022-09-21T11:52:25;8.10;;;1.20;;
71606;SDS011;60641;53.556;9.914;2022-09-21T12:00:20;5.30;;;1.30;;
71606;SDS011;60641;53.556;9.914;2022-09-21T12:02:57;5.30;;;1.40;;
71606;SDS011;60641;53.556;9.914;2022-09-21T12:11:28;6.30;;;1.60;;
71606;SDS011;60641;53.556;9.914;2022-09-21T12:19:32;6.90;;;1.30;;
71606;SDS011;60641;53.556;9.914;2022-09-21T12:22:23;7.90;;;1.60;;
71606;SDS011;60641;53.556;9.914;2022-09-21T12:24:53;7.80;;;1.50;;
71606;SDS011;60641;53.556;9.914;2022-09-21T12:27:27;4.60;;;1.30;;
71606;SDS011;60641;53.556;9.914;2022-09-21T12:30:03;4.10;;;1.40;;
71606;SDS011;60641;53.556;9.914;2022-09-21T12:32:44;4.10;;;1.40;;
71606;SDS011;60641;53.556;9.914;2022-09-21T12:35:39;3.10;;;1.00;;
71606;SDS011;60641;53.556;9.914;2022-09-21T12:40:39;4.60;;;1.20;;
71606;SDS011;60641;53.556;9.914;2022-09-21T12:43:16;6.30;;;1.20;;
71606;SDS011;60641;53.556;9.914;2022-09-21T12:48:32;4.20;;;1.20;;
71606;SDS011;60641;53.556;9.914;2022-09-21T12:53:37;3.90;;;1.10;;
71606;SDS011;60641;53.556;9.914;2022-09-21T12:56:07;4.40;;;1.10;;
71606;SDS011;60641;53.556;9.914;2022-09-21T13:09:28;6.80;;;1.00;;
71606;SDS011;60641;53.556;9.914;2022-09-21T13:11:57;14.20;;;1.20;;
71606;SDS011;60641;53.556;9.914;2022-09-21T13:14:27;5.30;;;1.20;;
71606;SDS011;60641;53.556;9.914;2022-09-21T13:16:59;4.80;;;1.10;;
71606;SDS011;60641;53.556;9.914;2022-09-21T13:19:29;5.40;;;1.10;;
71606;SDS011;60641;53.556;9.914;2022-09-21T13:22:10;2.60;;;1.00;;
71606;SDS011;60641;53.556;9.914;2022-09-21T13:24:41;4.40;;;1.10;;
71606;SDS011;60641;53.556;9.914;2022-09-21T13:27:10;3.50;;;0.90;;
71606;SDS011;60641;53.556;9.914;2022-09-21T13:29:37;3.10;;;1.00;;
71606;SDS011;60641;53.556;9.914;2022-09-21T13:34:37;2.80;;;0.70;;
71606;SDS011;60641;53.556;9.914;2022-09-21T13:39:42;4.30;;;0.70;;
71606;SDS011;60641;53.556;9.914;2022-09-21T13:47:41;1.70;;;0.70;;
71606;SDS011;60641;53.556;9.914;2022-09-21T13:50:25;2.50;;;0.80;;
71606;SDS011;60641;53.556;9.914;2022-09-21T13:53:04;3.00;;;0.80;;
71606;SDS011;60641;53.556;9.914;2022-09-21T13:58:04;3.90;;;0.70;;
71606;SDS011;60641;53.556;9.914;2022-09-21T14:03:48;2.80;;;0.80;;
71606;SDS011;60641;53.556;9.914;2022-09-21T14:06:16;2.00;;;0.70;;
71606;SDS011;60641;53.556;9.914;2022-09-21T14:08:59;3.40;;;0.70;;
71606;SDS011;60641;53.556;9.914;2022-09-21T14:11:29;4.30;;;0.70;;
71606;SDS011;60641;53.556;9.914;2022-09-21T14:14:12;3.00;;;0.70;;
71606;SDS011;60641;53.556;9.914;2022-09-21T14:16:50;2.60;;;0.70;;
71606;SDS011;60641;53.556;9.914;2022-09-21T14:24:39;3.70;;;0.80;;
71606;SDS011;60641;53.556;9.914;2022-09-21T14:27:29;1.80;;;0.70;;
71606;SDS011;60641;53.556;9.914;2022-09-21T14:32:45;3.80;;;0.90;;
71606;SDS011;60641;53.556;9.914;2022-09-21T14:35:17;2.40;;;0.70;;
71606;SDS011;60641;53.556;9.914;2022-09-21T14:37:48;2.30;;;0.70;;
71606;SDS011;60641;53.556;9.914;2022-09-21T14:40:36;1.90;;;0.60;;
71606;SDS011;60641;53.556;9.914;2022-09-21T14:43:08;3.10;;;0.80;;
71606;SDS011;60641;53.556;9.914;2022-09-21T14:45:52;2.30;;;0.80;;
71606;SDS011;60641;53.556;9.914;2022-09-21T14:51:35;3.80;;;0.80;;
71606;SDS011;60641;53.556;9.914;2022-09-21T14:54:55;2.50;;;0.70;;
71606;SDS011;60641;53.556;9.914;2022-09-21T14:57:14;2.00;;;0.50;;
71606;SDS011;60641;53.556;9.914;2022-09-21T15:00:03;2.40;;;0.60;;
71606;SDS011;60641;53.556;9.914;2022-09-21T15:02:46;4.30;;;0.70;;
71606;SDS011;60641;53.556;9.914;2022-09-21T15:13:50;2.30;;;0.60;;
71606;SDS011;60641;53.556;9.914;2022-09-21T15:16:39;4.90;;;0.70;;
71606;SDS011;60641;53.556;9.914;2022-09-21T15:21:44;2.50;;;0.70;;
71606;SDS011;60641;53.556;9.914;2022-09-21T15:24:17;4.50;;;0.70;;
71606;SDS011;60641;53.556;9.914;2022-09-21T15:26:51;2.50;;;0.60;;
71606;SDS011;60641;53.556;9.914;2022-09-21T15:29:24;5.20;;;0.80;;
71606;SDS011;60641;53.556;9.914;2022-09-21T15:31:52;2.60;;;0.70;;
71606;SDS011;60641;53.556;9.914;2022-09-21T15:34:20;1.30;;;0.60;;
71606;SDS011;60641;53.556;9.914;2022-09-21T15:36:47;5.40;;;0.70;;
71606;SDS011;60641;53.556;9.914;2022-09-21T15:44:35;5.30;;;0.80;;
71606;SDS011;60641;53.556;9.914;2022-09-21T15:47:03;4.30;;;0.70;;
71606;SDS011;60641;53.556;9.914;2022-09-21T15:49:33;4.70;;;1.00;;
71606;SDS011;60641;53.556;9.914;2022-09-21T15:54:55;2.80;;;0.90;;
71606;SDS011;60641;53.556;9.914;2022-09-21T15:57:39;11.20;;;1.10;;
71606;SDS011;60641;53.556;9.914;2022-09-21T16:02:40;4.40;;;0.90;;
71606;SDS011;60641;53.556;9.914;2022-09-21T16:05:12;4.10;;;0.80;;
71606;SDS011;60641;53.556;9.914;2022-09-21T16:07:39;4.50;;;1.00;;
71606;SDS011;60641;53.556;9.914;2022-09-21T16:16:05;2.80;;;0.80;;
71606;SDS011;60641;53.556;9.914;2022-09-21T16:18:41;8.90;;;2.60;;
71606;SDS011;60641;53.556;9.914;2022-09-21T16:21:32;7.70;;;2.40;;
71606;SDS011;60641;53.556;9.914;2022-09-21T16:24:08;6.00;;;1.60;;
71606;SDS011;60641;53.556;9.914;2022-09-21T16:26:41;5.00;;;1.10;;
71606;SDS011;60641;53.556;9.914;2022-09-21T16:29:18;6.60;;;0.90;;
71606;SDS011;60641;53.556;9.914;2022-09-21T16:34:43;3.60;;;0.90;;
71606;SDS011;60641;53.556;9.914;2022-09-21T16:39:52;3.40;;;0.80;;
71606;SDS011;60641;53.556;9.914;2022-09-21T16:42:23;4.40;;;1.40;;
71606;SDS011;60641;53.556;9.914;2022-09-21T16:44:58;10.90;;;4.00;;
71606;SDS011;60641;53.556;9.914;2022-09-21T16:47:26;5.80;;;1.90;;
71606;SDS011;60641;53.556;9.914;2022-09-21T16:49:54;9.00;;;3.20;;
71606;SDS011;60641;53.556;9.914;2022-09-21T16:52:22;8.10;;;2.80;;
71606;SDS011;60641;53.556;9.914;2022-09-21T16:54:49;6.00;;;1.60;;
71606;SDS011;60641;53.556;9.914;2022-09-21T16:57:16;6.10;;;1.60;;
71606;SDS011;60641;53.556;9.914;2022-09-21T16:59:42;5.20;;;1.20;;
71606;SDS011;60641;53.556;9.914;2022-09-21T17:02:09;3.70;;;0.80;;
71606;SDS011;60641;53.556;9.914;2022-09-21T17:04:38;3.80;;;0.80;;
71606;SDS011;60641;53.556;9.914;2022-09-21T17:07:05;4.60;;;1.10;;
71606;SDS011;60641;53.556;9.914;2022-09-21T17:09:33;4.30;;;0.90;;
71606;SDS011;60641;53.556;9.914;2022-09-21T17:12:04;6.20;;;1.30;;
71606;SDS011;60641;53.556;9.914;2022-09-21T17:14:33;5.30;;;1.40;;
71606;SDS011;60641;53.556;9.914;2022-09-21T17:17:09;5.70;;;1.40;;
71606;SDS011;60641;53.556;9.914;2022-09-21T17:19:37;12.50;;;5.30;;
71606;SDS011;60641;53.556;9.914;2022-09-21T17:22:05;7.60;;;2.60;;
71606;SDS011;60641;53.556;9.914;2022-09-21T17:24:32;7.30;;;2.00;;
71606;SDS011;60641;53.556;9.914;2022-09-21T17:26:59;5.80;;;1.60;;
71606;SDS011;60641;53.556;9.914;2022-09-21T17:29:26;4.20;;;1.20;;
71606;SDS011;60641;53.556;9.914;2022-09-21T17:31:53;5.20;;;1.50;;
71606;SDS011;60641;53.556;9.914;2022-09-21T17:34:23;5.70;;;1.60;;
71606;SDS011;60641;53.556;9.914;2022-09-21T17:36:52;6.80;;;1.50;;
71606;SDS011;60641;53.556;9.914;2022-09-21T17:39:19;5.40;;;1.50;;
71606;SDS011;60641;53.556;9.914;2022-09-21T17:41:58;4.90;;;1.30;;
71606;SDS011;60641;53.556;9.914;2022-09-21T17:45:02;4.50;;;1.30;;
71606;SDS011;60641;53.556;9.914;2022-09-21T17:47:37;6.50;;;1.40;;
71606;SDS011;60641;53.556;9.914;2022-09-21T17:52:38;6.40;;;1.50;;
71606;SDS011;60641;53.556;9.914;2022-09-21T17:55:24;5.90;;;1.50;;
71606;SDS011;60641;53.556;9.914;2022-09-21T18:00:45;6.00;;;1.30;;
71606;SDS011;60641;53.556;9.914;2022-09-21T18:03:20;6.50;;;1.50;;
71606;SDS011;60641;53.556;9.914;2022-09-21T18:05:51;6.80;;;1.60;;
71606;SDS011;60641;53.556;9.914;2022-09-21T18:08:27;5.50;;;1.40;;
71606;SDS011;60641;53.556;9.914;2022-09-21T18:16:28;5.10;;;1.70;;
71606;SDS011;60641;53.556;9.914;2022-09-21T18:19:19;6.70;;;1.60;;
71606;SDS011;60641;53.556;9.914;2022-09-21T18:21:51;7.70;;;1.70;;
71606;SDS011;60641;53.556;9.914;2022-09-21T18:24:26;6.80;;;1.90;;
71606;SDS011;60641;53.556;9.914;2022-09-21T18:26:54;5.20;;;1.70;;
71606;SDS011;60641;53.556;9.914;2022-09-21T18:40:32;5.90;;;1.80;;
71606;SDS011;60641;53.556;9.914;2022-09-21T18:43:01;7.70;;;2.00;;
71606;SDS011;60641;53.556;9.914;2022-09-21T18:45:52;8.70;;;2.10;;
71606;SDS011;60641;53.556;9.914;2022-09-21T18:51:33;7.00;;;2.20;;
71606;SDS011;60641;53.556;9.914;2022-09-21T18:54:07;9.70;;;2.50;;
71606;SDS011;60641;53.556;9.914;2022-09-21T18:56:41;9.70;;;3.00;;
71606;SDS011;60641;53.556;9.914;2022-09-21T18:59:08;11.00;;;2.90;;
71606;SDS011;60641;53.556;9.914;2022-09-21T19:01:36;10.70;;;2.90;;
71606;SDS011;60641;53.556;9.914;2022-09-21T19:04:04;7.80;;;3.10;;
71606;SDS011;60641;53.556;9.914;2022-09-21T19:09:37;11.40;;;3.70;;